Latest Weather Observations for St Lawrence

IDQ60801

Issued at 7:05 pm EST Saturday 22 November 2014 (issued every 30 minutes, with the page automatically refreshed every 10 minutes)

About weather observations | Map of weather stations | Latest weather observations for QLD | Other Formats
Station Details ID: 033210 Name: ST LAWRENCE Lat: -22.35 Lon: 149.52 Height: 9.19 m
Data from the previous 72 hours. | See also: Recent months at St Lawrence
Date/Time
EST
Temp
°C
App
Temp
°C
Dew
Point
Rel
Hum
%
Delta-T
°C
Wind Press
QNH
hPa
Press
MSL
hPa
Rain
since 9 am
mm
Dir
 
Spd
km/h
Gust
km/h
Spd
kts
Gust
kts
22/07:00pm 26.4 27.7 21.6 75 3.2 NNE 17 24 9 13 1013.1 1013.0 0.0
22/06:30pm 26.7 28.3 22.1 76 3.1 NNE 17 24 9 13 1012.9 1012.8 0.0
22/06:00pm 27.1 28.4 22.3 75 3.2 NNE 19 26 10 14 1012.5 1012.4 0.0
22/05:30pm 28.1 29.1 22.1 70 4.0 NNE 20 28 11 15 1012.0 1011.9 0.0
22/05:00pm 29.9 29.1 19.3 53 6.9 NNE 22 28 12 15 1011.6 1011.5 0.0
22/04:30pm 30.6 30.7 19.9 52 7.0 NNE 19 28 10 15 1011.4 1011.3 0.0
22/04:00pm 30.7 30.3 19.4 51 7.4 NNE 20 28 11 15 1011.3 1011.2 0.0
22/03:30pm 30.8 30.6 19.8 52 7.2 NNE 20 28 11 15 1011.5 1011.4 0.0
22/03:00pm 30.8 30.5 20.4 54 6.9 NE 22 30 12 16 1011.7 1011.6 0.0
22/02:30pm 30.4 30.2 20.6 55 6.5 NE 22 30 12 16 1012.1 1012.0 0.0
22/02:00pm 30.8 30.4 20.1 53 7.1 NNE 22 28 12 15 1012.5 1012.4 0.0
22/01:30pm 31.2 31.1 19.9 51 7.4 NE 20 28 11 15 1013.2 1013.1 0.0
22/01:00pm 30.8 30.8 20.1 53 7.1 NE 20 30 11 16 1013.6 1013.5 0.0
22/12:30pm 31.0 31.2 20.6 54 6.9 NE 20 30 11 16 1014.0 1013.9 0.0
22/12:00pm 30.6 30.6 20.2 53 6.9 NE 20 26 11 14 1014.4 1014.3 0.0
22/11:30am 30.5 30.5 20.1 53 6.9 NNE 20 26 11 14 1014.7 1014.6 0.0
22/11:00am 30.7 30.6 20.0 52 7.0 NE 20 24 11 13 1015.1 1015.0 0.0
22/10:30am 30.2 30.6 20.7 56 6.3 NE 19 26 10 14 1015.4 1015.3 0.0
22/10:00am 30.2 31.0 21.3 59 6.0 NE 19 26 10 14 1015.6 1015.5 0.0
22/09:30am 30.1 30.6 20.9 57 6.1 NE 19 28 10 15 1015.6 1015.5 0.0
22/09:00am 29.4 30.2 21.4 62 5.4 NNE 19 28 10 15 1015.6 1015.5 0.0
22/08:30am 28.7 29.1 20.7 62 5.3 NNE 19 24 10 13 1015.7 1015.6 0.0
22/08:00am 28.9 30.2 21.7 65 4.8 NNE 17 24 9 13 1015.6 1015.5 0.0
22/07:30am 27.5 29.4 21.3 69 4.1 NNE 13 19 7 10 1015.4 1015.3 0.0
22/07:00am 26.3 29.4 21.1 73 3.4 N 6 9 3 5 1015.2 1015.1 0.0
22/06:30am 24.8 28.1 21.5 82 2.2 W 6 6 3 3 1014.8 1014.7 0.0
22/06:00am 24.0 28.3 21.1 84 1.9 CALM 0 0 0 0 1014.4 1014.3 0.0
22/05:30am 23.3 27.5 21.0 87 1.5 CALM 0 0 0 0 1014.1 1014.0 0.0
22/05:00am 24.1 27.2 21.0 83 2.0 N 6 9 3 5 1013.5 1013.4 0.0
22/04:30am 24.3 27.2 21.0 82 2.2 N 7 9 4 5 1013.1 1013.0 0.0
22/04:00am 24.7 27.3 21.2 81 2.3 N 9 11 5 6 1012.7 1012.6 0.0
22/03:30am 24.5 27.4 21.0 81 2.3 NNW 7 9 4 5 1012.7 1012.6 0.0
22/03:00am 25.6 27.0 21.1 76 3.0 N 15 20 8 11 1012.4 1012.3 0.0
22/02:30am 25.7 28.0 21.4 77 2.8 N 11 17 6 9 1012.3 1012.2 0.0
22/02:00am 25.7 26.5 21.4 77 2.9 NNE 19 26 10 14 1012.7 1012.6 0.0
22/01:30am 25.7 27.3 21.4 77 2.8 NNE 15 24 8 13 1012.7 1012.6 0.0
22/01:00am 25.7 27.1 21.1 76 3.0 N 15 24 8 13 1012.9 1012.8 0.0
22/12:30am 25.9 27.3 21.1 75 3.2 N 15 26 8 14 1013.5 1013.4 0.0
22/12:00am 25.9 26.7 21.3 76 3.0 NNE 19 28 10 15 1013.7 1013.6 0.0
 
Date/Time
EST
Temp
°C
App
Temp
°C
Dew
Point
Rel
Hum
%
Delta-T
°C
Wind Press
QNH
hPa
Press
MSL
hPa
Rain
since 9 am
mm
Dir
 
Spd
km/h
Gust
km/h
Spd
kts
Gust
kts
21/11:30pm 25.9 26.8 21.6 77 2.9 NNE 19 24 10 13 1013.9 1013.8 0.0
21/11:00pm 26.0 27.0 21.7 77 2.9 NNE 19 28 10 15 1014.3 1014.2 0.0
21/10:30pm 25.9 27.0 21.3 76 3.0 NNE 17 24 9 13 1014.1 1014.0 0.0
21/10:00pm 26.0 26.6 21.4 76 3.1 NNE 20 28 11 15 1014.0 1013.9 0.0
21/09:30pm 26.0 26.7 21.2 75 3.2 NNE 19 24 10 13 1014.0 1013.9 0.0
21/09:00pm 25.9 27.2 20.9 74 3.3 NNE 15 22 8 12 1014.1 1014.0 0.0
21/08:30pm 25.8 27.1 20.8 74 3.3 NNE 15 20 8 11 1013.5 1013.4 0.0
21/08:00pm 25.8 27.2 21.0 75 3.2 NNE 15 22 8 12 1013.5 1013.4 0.0
21/07:30pm 25.9 26.9 21.1 75 3.2 NE 17 22 9 12 1013.0 1012.9 0.0
21/07:00pm 26.1 27.0 20.9 73 3.4 NE 17 24 9 13 1012.7 1012.6 0.0
21/06:30pm 26.4 27.2 20.7 71 3.7 NE 17 24 9 13 1012.4 1012.3 0.0
21/06:00pm 26.9 27.1 20.5 68 4.2 NE 20 32 11 17 1012.2 1012.1 0.0
21/05:30pm 27.6 27.0 20.4 65 4.7 NNE 24 35 13 19 1011.9 1011.8 0.0
21/05:00pm 28.2 27.8 20.2 62 5.3 NNE 22 30 12 16 1011.7 1011.6 0.0
21/04:30pm 28.8 28.0 20.0 59 5.8 NNE 24 33 13 18 1011.5 1011.4 0.0
21/04:00pm 29.1 28.1 19.7 57 6.1 NE 24 33 13 18 1011.6 1011.5 0.0
21/03:30pm 29.4 28.0 18.8 53 6.8 NE 24 35 13 19 1011.6 1011.5 0.0
21/03:00pm 29.9 28.6 19.0 52 7.1 NE 24 35 13 19 1011.9 1011.8 0.0
21/02:30pm 29.7 27.2 17.2 47 7.9 NE 26 39 14 21 1012.2 1012.1 0.0
21/02:00pm 30.0 27.8 17.8 48 7.8 NNE 26 35 14 19 1012.6 1012.5 0.0
21/01:30pm 30.1 28.1 18.2 49 7.6 NNE 26 35 14 19 1013.0 1012.9 0.0
21/01:00pm 30.3 27.6 16.7 44 8.5 NE 26 37 14 20 1013.4 1013.3 0.0
21/12:30pm 29.9 27.6 17.7 48 7.8 NE 26 32 14 17 1013.8 1013.7 0.0
21/12:00pm 30.1 28.6 18.5 49 7.5 NE 24 33 13 18 1014.4 1014.3 0.0
21/11:30am 29.9 28.9 19.6 54 6.7 NNE 24 33 13 18 1014.9 1014.8 0.0
21/11:00am 29.0 28.3 19.6 57 6.1 NE 22 28 12 15 1015.2 1015.1 0.0
21/10:30am 29.1 28.5 19.7 57 6.1 NE 22 30 12 16 1015.5 1015.4 0.0
21/10:00am 29.6 29.1 19.9 56 6.4 NNE 22 33 12 18 1015.6 1015.5 0.0
21/09:30am 28.9 28.2 19.5 57 6.1 NNE 22 32 12 17 1015.8 1015.7 0.0
21/09:00am 29.0 28.7 19.6 57 6.1 NE 20 32 11 17 1015.9 1015.8 0.0
21/08:30am 28.6 28.4 19.8 59 5.7 NNE 20 28 11 15 1016.1 1016.0 0.0
21/08:00am 28.0 28.1 20.0 61 5.2 NNE 19 24 10 13 1016.0 1015.9 0.0
21/07:30am 26.5 27.5 20.3 68 4.1 N 15 20 8 11 1016.2 1016.1 0.0
21/07:00am 26.5 27.7 20.6 70 3.9 NNW 15 19 8 10 1015.9 1015.8 0.0
21/06:30am 25.6 28.3 20.6 74 3.3 N 7 11 4 6 1015.7 1015.6 0.0
21/06:00am 25.1 27.9 20.8 77 2.8 N 7 9 4 5 1015.2 1015.1 0.0
21/05:30am 24.8 26.3 20.5 77 2.8 NNE 13 17 7 9 1014.5 1014.4 0.0
21/05:00am 24.7 26.0 20.8 79 2.6 NNE 15 22 8 12 1014.1 1014.0 0.0
21/04:30am 25.1 26.0 20.8 77 2.8 NNE 17 24 9 13 1013.7 1013.6 0.0
21/04:00am 25.1 26.6 21.2 79 2.6 NNE 15 22 8 12 1013.5 1013.4 0.0
21/03:30am 25.0 26.9 21.3 80 2.4 NNE 13 20 7 11 1013.4 1013.3 0.0
21/03:00am 25.0 26.0 21.1 79 2.6 NNE 17 26 9 14 1013.1 1013.0 0.0
21/02:30am 25.1 26.2 21.2 79 2.6 NNE 17 22 9 12 1013.2 1013.1 0.0
21/02:00am 25.2 26.3 21.3 79 2.6 NNE 17 24 9 13 1013.3 1013.2 0.0
21/01:30am 25.3 25.7 21.0 77 2.8 NE 20 28 11 15 1013.7 1013.6 0.0
21/01:00am 25.4 26.0 21.3 78 2.7 NE 20 30 11 16 1014.2 1014.1 0.0
21/12:30am 25.6 26.4 21.7 79 2.6 NE 20 32 11 17 1014.4 1014.3 0.0
21/12:00am 25.8 26.4 22.1 80 2.5 NNE 22 32 12 17 1014.7 1014.6 0.0
 
Date/Time
EST
Temp
°C
App
Temp
°C
Dew
Point
Rel
Hum
%
Delta-T
°C
Wind Press
QNH
hPa
Press
MSL
hPa
Rain
since 9 am
mm
Dir
 
Spd
km/h
Gust
km/h
Spd
kts
Gust
kts
20/11:30pm 25.8 27.5 22.3 81 2.3 NNE 17 28 9 15 1015.0 1014.9 0.0
20/11:00pm 25.8 26.9 21.9 79 2.6 NE 19 26 10 14 1015.4 1015.3 0.0
20/10:30pm 25.7 27.0 21.6 78 2.7 NE 17 22 9 12 1015.8 1015.7 0.0
20/10:00pm 25.8 26.9 21.9 79 2.6 NE 19 26 10 14 1015.8 1015.7 0.0
20/09:30pm 25.8 27.1 21.7 78 2.7 NE 17 24 9 13 1015.6 1015.5 0.0
20/09:00pm 26.0 27.6 22.1 79 2.6 NNE 17 24 9 13 1015.5 1015.4 0.0
20/08:30pm 25.9 27.7 21.8 78 2.7 NNE 15 22 8 12 1015.2 1015.1 0.0
20/08:00pm 25.8 27.1 21.7 78 2.7 NNE 17 26 9 14 1014.7 1014.6 0.0
20/07:30pm 25.6 26.9 21.7 79 2.6 NNE 17 24 9 13 1014.4 1014.3 0.0
20/07:00pm 25.8 26.7 21.5 77 2.9 NNE 19 26 10 14 1014.1 1014.0 0.0
20/06:30pm 26.1 26.7 21.3 75 3.2 NNE 20 32 11 17 1013.7 1013.6 0.0
20/06:00pm 26.5 26.7 20.6 70 3.9 NNE 20 30 11 16 1013.3 1013.2 0.0
20/05:30pm 27.2 27.0 20.5 67 4.4 NNE 22 30 12 16 1013.0 1012.9 0.0
20/05:00pm 27.4 26.8 20.5 66 4.5 NE 24 33 13 18 1012.7 1012.6 0.0
20/04:30pm 27.9 27.3 20.5 64 4.9 NNE 24 33 13 18 1012.3 1012.2 0.0
20/04:00pm 28.3 27.8 20.8 63 5.0 NE 24 35 13 19 1012.1 1012.0 0.0
20/03:30pm 28.7 27.8 20.7 62 5.3 NE 26 35 14 19 1012.2 1012.1 0.0
20/03:00pm 29.0 27.9 20.2 59 5.8 NE 26 33 14 18 1012.3 1012.2 0.0
20/02:30pm 29.2 28.4 20.9 61 5.5 NE 26 37 14 20 1012.4 1012.3 0.0
20/02:00pm 29.8 29.0 20.9 59 5.9 NE 26 33 14 18 1012.8 1012.7 0.0
20/01:30pm 29.9 28.8 20.2 56 6.4 NE 26 35 14 19 1013.3 1013.2 0.0
20/01:00pm 29.9 29.0 19.9 55 6.6 NE 24 37 13 20 1013.6 1013.5 0.0
20/12:30pm 29.9 29.4 19.9 55 6.6 ENE 22 33 12 18 1014.0 1013.9 0.0
20/12:00pm 30.0 29.2 20.0 55 6.6 NE 24 37 13 20 1014.4 1014.3 0.0
20/11:30am 29.5 27.6 18.6 52 7.0 NE 26 37 14 20 1014.8 1014.7 0.0
20/11:00am 30.7 30.3 19.4 51 7.4 NE 20 30 11 16 1015.1 1015.0 0.0
20/10:30am 29.8 28.2 18.3 50 7.4 N 24 33 13 18 1015.1 1015.0 0.0
20/10:00am 29.7 28.0 19.7 55 6.5 N 28 39 15 21 1015.2 1015.1 0.0
20/09:30am 27.7 26.0 19.8 62 5.1 N 28 39 15 21 1015.3 1015.2 0.0
20/09:00am 28.0 27.3 20.3 63 5.1 N 24 35 13 19 1015.8 1015.7 10.0
20/08:30am 28.1 28.1 20.1 62 5.2 N 20 28 11 15 1016.4 1016.3 10.0
20/08:00am 27.3 28.4 20.4 66 4.5 N 15 20 8 11 1016.7 1016.6 9.8
20/07:30am 26.2 27.9 21.0 73 3.4 N 13 20 7 11 1016.6 1016.5 9.8
20/07:00am 26.4 29.4 21.2 73 3.4 N 7 11 4 6 1016.5 1016.4 9.8
20/06:30am 25.1 28.1 21.2 79 2.6 NNE 7 13 4 7 1015.9 1015.8 9.8
20/06:00am 24.8 26.2 21.1 80 2.4 NNE 15 20 8 11 1015.1 1015.0 9.8
20/05:30am 24.6 26.5 21.3 82 2.2 NNE 13 17 7 9 1015.0 1014.9 9.8
20/05:00am 24.7 26.4 21.6 83 2.1 NE 15 20 8 11 1014.6 1014.5 9.8
20/04:30am 24.9 27.8 21.8 83 2.1 ENE 9 15 5 8 1014.8 1014.7 9.8
20/04:00am 24.7 26.5 21.2 81 2.3 NE 13 20 7 11 1014.5 1014.4 9.8
20/03:30am 24.9 26.6 21.6 82 2.2 NE 15 20 8 11 1014.7 1014.6 9.8
20/03:00am 25.0 26.6 22.1 84 1.9 NE 17 20 9 11 1014.6 1014.5 9.8
20/02:30am 25.0 26.3 22.3 85 1.8 NE 19 24 10 13 1014.4 1014.3 9.8
20/02:00am 25.1 26.5 22.6 86 1.7 NE 19 28 10 15 1014.5 1014.4 9.8
20/01:30am 25.0 26.2 22.1 84 1.9 NE 19 24 10 13 1014.5 1014.4 9.8
20/01:00am 24.7 25.6 22.6 88 1.4 NNE 22 30 12 16 1014.5 1014.4 9.8
20/12:30am 24.6 26.6 22.3 87 1.5 NE 15 19 8 10 1015.8 1015.7 9.6
20/12:00am 24.2 27.8 22.3 89 1.3 ENE 7 13 4 7 1016.7 1016.6 9.4
 
Date/Time
EST
Temp
°C
App
Temp
°C
Dew
Point
Rel
Hum
%
Delta-T
°C
Wind Press
QNH
hPa
Press
MSL
hPa
Rain
since 9 am
mm
Dir
 
Spd
km/h
Gust
km/h
Spd
kts
Gust
kts
19/11:30pm 24.0 26.4 22.3 90 1.1 E 13 19 7 10 1017.4 1017.3 9.4
19/11:00pm 24.1 25.9 22.5 91 1.1 SE 17 24 9 13 1017.5 1017.4 7.4
19/10:30pm 24.9 27.5 22.6 87 1.5 ESE 13 20 7 11 1017.5 1017.4 1.4
19/10:00pm 26.4 27.7 22.3 78 2.8 E 19 32 10 17 1015.8 1015.7 0.0
19/09:30pm 26.5 27.2 22.3 78 2.8 NE 22 35 12 19 1014.8 1014.7 0.0
19/09:00pm 26.6 26.8 22.7 79 2.6 NNE 26 35 14 19 1013.8 1013.7 0.0
19/08:30pm 26.6 26.8 22.7 79 2.6 NNE 26 37 14 20 1013.6 1013.5 0.0
19/08:00pm 26.5 27.1 22.8 80 2.5 NE 24 33 13 18 1013.7 1013.6 0.0
19/07:30pm 26.5 26.4 22.3 78 2.8 NNE 26 39 14 21 1012.7 1012.6 0.0

Other Formats:

Comma delimited format used in spreadsheet applications
http://www.bom.gov.au/fwo/IDQ60801/IDQ60801.95369.axf

JavaScript Object Notation format (JSON) in row-major order
http://www.bom.gov.au/fwo/IDQ60801/IDQ60801.95369.json